KFPR/FPR METAR and TAF weather

Enter ICAO airport designator
Station Type Date Time Source
KFPR METAR 2019/02/18 03:53 UTC NOAA

KFPR 180353Z AUTO 18006KT 10SM CLR 23/19 A3004 RMK AO2 SLP171 T02280194


Station Type Date Time Source
KFPR Decoded METAR 2019/02/18 03:53 UTC NOAA

FORT PIERCE ST LUCIE, FL, United States (KFPR) 27-30N 080-23W 13M
Feb 17, 2019 - 10:53 PM EST / 2019.02.18 0353 UTC
Wind: from the S (180 degrees) at 7 MPH (6 KT):0
Visibility: 10 mile(s):0
Sky conditions: clear
Temperature: 73.0 F (22.8 C)
Dew Point: 66.9 F (19.4 C)
Relative Humidity: 81%
Pressure (altimeter): 30.04 in. Hg (1017 hPa)
ob: KFPR 180353Z AUTO 18006KT 10SM CLR 23/19 A3004 RMK AO2 SLP171 T02280194
cycle: 4

Station Type Date Time Source
KFPR TAF 2019/02/17 18:36 UTC NOAA

TAF KFPR 171735Z 1718/1818 18008KT P6SM BKN050
FM171900 12009KT P6SM BKN050
FM180000 17006KT P6SM FEW040 FEW250
FM181400 20007KT P6SM SCT035 BKN050


Example: see airport list